Time;durP1;ratioP1;P1;durP2;ratioP2;P2;SDS_P1;SDS_P2;PMS_P1;PMS_P2;Temp;Humidity;BMP_temperature;BMP_pressure;BME280_temperature;BME280_humidity;BME280_pressure;Samples;Min_cycle;Max_cycle;Signal;HPM_P1;HPM_P2
2021/11/28 00:00:14;;;;;;;70.50;37.13;;;;;;;3.58;92.27;99415.88;5040989;28;20108;-40
2021/11/28 00:02:39;;;;;;;65.65;35.92;;;;;;;3.55;91.93;99413.53;5032372;28;20058;-40
2021/11/28 00:05:05;;;;;;;68.63;36.28;;;;;;;3.61;91.65;99428.81;5032367;28;20021;-40
2021/11/28 00:12:59;;;;;;;65.20;36.20;;;;;;;3.63;91.75;99420.66;5037523;28;20049;-40
2021/11/28 00:15:16;;;;;;;64.68;35.28;;;;;;;3.58;91.79;99426.50;5031741;28;20143;-41
2021/11/28 00:17:42;;;;;;;;;;;;;;;3.60;91.58;99421.81;5032362;28;20085;-39
2021/11/28 00:20:13;;;;;;;64.35;33.95;;;;;;;3.63;91.32;99424.13;5031999;28;19979;-39
2021/11/28 00:22:40;;;;;;;61.05;31.75;;;;;;;3.64;91.41;99423.16;5033254;28;20401;-39
2021/11/28 00:25:11;;;;;;;63.58;32.20;;;;;;;3.61;91.69;99423.50;5034378;28;20447;-40
2021/11/28 00:27:37;;;;;;;61.15;32.33;;;;;;;3.64;90.83;99432.97;5034067;28;20092;-39
2021/11/28 00:30:04;;;;;;;58.10;32.42;;;;;;;3.61;91.72;99443.97;5051986;28;20051;-38
2021/11/28 00:32:30;;;;;;;66.72;33.60;;;;;;;3.62;91.61;99443.78;5051925;28;20033;-40
2021/11/28 00:34:55;;;;;;;57.25;31.42;;;;;;;3.63;91.28;99453.41;5032449;28;20119;-39
2021/11/28 00:37:20;;;;;;;61.25;32.42;;;;;;;3.67;91.35;99448.59;5032072;28;20049;-39
2021/11/28 00:39:47;;;;;;;56.55;31.05;;;;;;;3.71;91.07;99455.22;5031987;28;20031;-40
2021/11/28 00:42:13;;;;;;;55.17;31.27;;;;;;;3.71;90.62;99448.09;5045418;28;20399;-40
2021/11/28 00:44:39;;;;;;;59.78;31.38;;;;;;;3.78;90.09;99444.72;5037286;28;20049;-40
2021/11/28 00:47:04;;;;;;;56.45;31.08;;;;;;;3.74;89.60;99450.41;5031672;28;20087;-39
2021/11/28 00:49:30;;;;;;;53.70;29.40;;;;;;;3.73;89.79;99447.91;5032420;28;20029;-41
2021/11/28 00:51:58;;;;;;;54.30;29.02;;;;;;;3.65;89.61;99451.41;5032760;28;20025;-40
2021/11/28 00:54:26;;;;;;;58.72;30.38;;;;;;;3.68;89.92;99458.22;5052492;28;20044;-39
2021/11/28 00:56:51;;;;;;;60.05;31.10;;;;;;;3.70;90.33;99464.22;5046549;28;20048;-40
2021/11/28 00:59:17;;;;;;;53.67;31.50;;;;;;;3.60;90.21;99475.03;5032235;28;20033;-39
2021/11/28 01:01:42;;;;;;;56.30;31.40;;;;;;;3.57;90.71;99480.69;5032190;28;20065;-39
2021/11/28 01:04:08;;;;;;;53.50;29.98;;;;;;;3.57;91.44;99480.69;5032439;28;20036;-39
2021/11/28 01:06:33;;;;;;;53.38;31.63;;;;;;;3.62;91.20;99485.53;5032778;28;20024;-39
2021/11/28 01:08:59;;;;;;;59.42;31.08;;;;;;;3.72;91.40;99484.31;5033065;28;20508;-39
2021/11/28 01:11:24;;;;;;;56.28;30.98;;;;;;;3.72;90.95;99484.31;5036764;28;20060;-40
2021/11/28 01:13:50;;;;;;;52.15;29.38;;;;;;;3.73;91.01;99485.97;5035453;28;20060;-38
2021/11/28 01:16:16;;;;;;;49.83;28.85;;;;;;;3.81;90.42;99489.63;5035902;28;20369;-39
2021/11/28 01:18:41;;;;;;;53.83;29.90;;;;;;;3.88;89.95;99490.59;5035634;28;20079;-38
2021/11/28 01:21:07;;;;;;;49.03;27.98;;;;;;;3.82;89.94;99500.09;5035466;28;20038;-39
2021/11/28 01:23:33;;;;;;;49.17;29.15;;;;;;;3.84;90.09;99502.56;5049850;28;20064;-39
2021/11/28 01:25:58;;;;;;;57.38;30.33;;;;;;;3.83;90.52;99503.59;5055360;28;20060;-39
2021/11/28 01:28:24;;;;;;;50.17;28.95;;;;;;;3.82;90.08;99505.41;5055324;28;20111;-39
2021/11/28 01:30:49;;;;;;;58.13;31.25;;;;;;;3.84;90.03;99513.22;5055315;28;20025;-39
2021/11/28 01:33:15;;;;;;;60.10;31.83;;;;;;;3.83;90.13;99517.72;5055423;28;20032;-39
2021/11/28 01:35:40;;;;;;;55.65;30.63;;;;;;;3.82;90.00;99521.41;5039079;28;20025;-39
2021/11/28 01:38:05;;;;;;;53.65;29.10;;;;;;;3.83;90.42;99527.53;5035359;28;20029;-39
2021/11/28 01:40:31;;;;;;;54.70;29.98;;;;;;;3.80;89.99;99515.41;5035536;28;20028;-39
2021/11/28 01:43:05;;;;;;;56.20;31.27;;;;;;;3.70;89.83;99515.59;5035359;28;20087;-39
2021/11/28 01:45:32;;;;;;;49.45;28.60;;;;;;;3.69;89.62;99521.91;5043713;28;20033;-40
2021/11/28 01:48:00;;;;;;;53.00;29.13;;;;;;;3.56;89.41;99520.78;5055080;28;20471;-40
2021/11/28 01:50:27;;;;;;;;;;;;;;;3.43;89.70;99516.81;5054324;28;20104;-39
2021/11/28 01:52:53;;;;;;;49.80;26.23;;;;;;;3.36;89.62;99526.44;5046865;28;19967;-39
2021/11/28 01:55:22;;;;;;;49.88;26.23;;;;;;;3.30;90.05;99538.59;5035119;28;20026;-39
2021/11/28 01:57:48;;;;;;;47.08;25.92;;;;;;;3.14;89.95;99543.09;5034998;28;20045;-38
2021/11/28 02:00:20;;;;;;;50.90;27.55;;;;;;;3.05;90.31;99551.06;5034835;28;20021;-39
2021/11/28 02:02:46;;;;;;;45.75;25.92;;;;;;;3.00;90.89;99558.69;5035195;28;20047;-39
2021/11/28 02:05:14;;;;;;;50.30;27.17;;;;;;;2.96;90.90;99553.88;5034866;28;20040;-39
2021/11/28 02:07:39;;;;;;;50.45;27.20;;;;;;;2.98;92.04;99551.88;5033718;28;20037;-39
2021/11/28 02:10:05;;;;;;;52.05;28.25;;;;;;;3.04;91.76;99549.38;5034719;28;20025;-39
2021/11/28 02:12:31;;;;;;;51.10;28.13;;;;;;;3.15;92.83;99545.56;5035913;28;20037;-39
2021/11/28 02:14:57;;;;;;;49.70;27.10;;;;;;;3.19;92.22;99546.09;5053631;28;20086;-40
2021/11/28 02:17:23;;;;;;;51.30;27.70;;;;;;;3.20;92.08;99540.59;5044054;28;20112;-39
2021/11/28 02:19:48;;;;;;;48.33;26.83;;;;;;;3.17;91.92;99545.41;5033531;28;20484;-39
2021/11/28 02:22:14;;;;;;;50.05;28.25;;;;;;;3.13;91.36;99557.38;5036798;28;20395;-39
2021/11/28 02:24:39;;;;;;;50.88;27.83;;;;;;;3.09;92.00;99554.22;5042427;28;20430;-39
2021/11/28 02:27:04;;;;;;;51.20;27.63;;;;;;;3.02;91.77;99563.84;5054526;28;20448;-40
2021/11/28 02:29:30;;;;;;;50.55;27.17;;;;;;;3.09;92.06;99567.50;5038593;28;20029;-39
2021/11/28 02:31:55;;;;;;;50.22;27.25;;;;;;;3.23;91.41;99566.84;5034475;28;20032;-40
2021/11/28 02:34:21;;;;;;;43.72;24.70;;;;;;;3.23;90.48;99569.50;5034654;28;20040;-39
2021/11/28 02:36:51;;;;;;;40.92;24.30;;;;;;;3.21;90.55;99571.50;5034397;28;20106;-39
2021/11/28 02:39:16;;;;;;;43.80;24.77;;;;;;;3.15;90.00;99566.00;5034125;28;20500;-40
2021/11/28 02:41:42;;;;;;;45.38;24.48;;;;;;;3.19;89.26;99576.16;5044539;28;20053;-39
2021/11/28 02:44:07;;;;;;;43.35;23.92;;;;;;;3.20;89.66;99580.47;5053877;28;20456;-39
2021/11/28 02:46:32;;;;;;;43.17;23.40;;;;;;;3.14;89.31;99593.59;5054036;28;20634;-38
2021/11/28 02:48:58;;;;;;;44.83;24.88;;;;;;;3.15;88.96;99585.44;5054164;28;20025;-38
2021/11/28 02:51:23;;;;;;;44.92;23.35;;;;;;;3.07;89.73;99591.59;5053900;28;20021;-38
2021/11/28 02:53:48;;;;;;;41.78;23.73;;;;;;;3.03;89.69;99597.41;5035637;28;20458;-39
2021/11/28 02:56:14;;;;;;;37.00;21.92;;;;;;;2.93;89.58;99588.75;5033790;28;20121;-39
2021/11/28 02:58:39;;;;;;;39.90;21.63;;;;;;;2.85;90.33;99587.72;5033715;28;20037;-39
2021/11/28 03:01:10;;;;;;;39.88;21.75;;;;;;;2.82;90.21;99588.06;5033447;28;20559;-39
2021/11/28 03:03:35;;;;;;;42.83;21.70;;;;;;;2.86;89.44;99592.03;5033828;28;20061;-39
2021/11/28 03:06:01;;;;;;;35.45;20.65;;;;;;;2.83;89.52;99589.72;5053696;28;20455;-39
2021/11/28 03:08:26;;;;;;;35.13;20.23;;;;;;;2.83;89.23;99589.72;5053491;28;20021;-39
2021/11/28 03:10:53;;;;;;;34.65;20.83;;;;;;;2.70;89.30;99580.56;5050092;28;20441;-39
2021/11/28 03:13:34;;;;;;;37.35;20.45;;;;;;;2.59;89.65;99581.69;5033487;28;20029;-38
2021/11/28 03:16:02;;;;;;;38.28;21.58;;;;;;;2.56;90.24;99584.69;5032151;28;20033;-39
2021/11/28 03:18:29;;;;;;;39.70;21.75;;;;;;;2.53;91.01;99582.34;5033343;28;20033;-38
2021/11/28 03:20:57;;;;;;;37.63;20.23;;;;;;;2.48;90.04;99584.66;5033365;28;20025;-39
2021/11/28 03:23:25;;;;;;;41.70;21.40;;;;;;;2.39;90.42;99589.06;5034492;28;20033;-39
2021/11/28 03:26:12;;;;;;;36.40;20.15;;;;;;;2.38;89.93;99585.59;5046322;28;20120;-39
2021/11/28 03:28:39;;;;;;;40.30;21.67;;;;;;;2.30;90.64;99592.72;5053260;28;20483;-39
2021/11/28 03:31:05;;;;;;;39.90;20.33;;;;;;;2.30;91.10;99598.00;5053176;28;20037;-39
2021/11/28 03:33:31;;;;;;;38.40;20.95;;;;;;;2.31;91.09;99592.53;5052776;28;20048;-39
2021/11/28 03:35:57;;;;;;;41.45;21.35;;;;;;;2.28;91.14;99610.63;5041763;28;20120;-39
2021/11/28 03:38:22;;;;;;;42.47;22.55;;;;;;;2.20;91.14;99596.31;5033085;28;20423;-40
2021/11/28 03:40:48;;;;;;;43.25;20.98;;;;;;;2.15;91.44;99603.06;5035862;28;20025;-39
2021/11/28 03:43:13;;;;;;;41.55;21.95;;;;;;;2.14;91.78;99596.13;5052913;28;20033;-39
2021/11/28 03:45:39;;;;;;;41.00;20.65;;;;;;;2.16;91.31;99591.50;5047087;28;20021;-39
2021/11/28 03:48:04;;;;;;;43.28;21.77;;;;;;;2.16;91.70;99591.50;5033099;28;20091;-38
2021/11/28 03:50:29;;;;;;;42.50;22.58;;;;;;;2.19;91.49;99591.16;5033152;28;20443;-39
2021/11/28 03:52:55;;;;;;;42.17;21.63;;;;;;;2.20;91.60;99596.31;5045227;28;20051;-39
2021/11/28 03:55:22;;;;;;;52.20;22.95;;;;;;;2.27;91.44;99599.16;5052381;28;20029;-39
2021/11/28 03:57:48;;;;;;;43.00;22.88;;;;;;;2.25;90.97;99601.13;5033009;28;20506;-39
2021/11/28 04:00:14;;;;;;;42.53;22.30;;;;;;;2.23;91.83;99603.13;5032878;28;20038;-39
2021/11/28 04:02:39;;;;;;;40.95;20.63;;;;;;;2.26;91.79;99605.44;5033035;28;20132;-39
2021/11/28 04:05:06;;;;;;;42.47;21.52;;;;;;;2.28;91.46;99610.63;5032991;28;20107;-39
2021/11/28 04:07:31;;;;;;;43.58;21.80;;;;;;;2.25;91.87;99605.63;5048260;28;20099;-40
2021/11/28 04:09:57;;;;;;;42.13;22.42;;;;;;;2.20;91.84;99603.44;5052867;28;20044;-40
2021/11/28 04:12:23;;;;;;;50.53;22.30;;;;;;;2.16;92.01;99602.09;5034908;28;20420;-40
2021/11/28 04:14:48;;;;;;;42.70;21.83;;;;;;;2.12;92.20;99608.72;5032969;28;20037;-39
2021/11/28 04:17:13;;;;;;;46.95;23.65;;;;;;;2.06;92.66;99609.34;5031054;28;20092;-39
2021/11/28 04:19:39;;;;;;;47.55;23.48;;;;;;;2.04;92.68;99606.00;5032898;28;20563;-39
2021/11/28 04:22:04;;;;;;;45.08;21.92;;;;;;;2.02;93.21;99606.16;5032754;28;20079;-39
2021/11/28 04:24:30;;;;;;;43.63;21.95;;;;;;;2.07;93.35;99611.00;5032676;28;20038;-39
2021/11/28 04:26:55;;;;;;;40.35;21.55;;;;;;;2.07;92.79;99613.66;5042748;28;20043;-39
2021/11/28 04:29:21;;;;;;;48.17;22.70;;;;;;;2.02;93.28;99611.47;5052726;28;20052;-38
2021/11/28 04:31:47;;;;;;;49.80;23.63;;;;;;;2.00;93.28;99602.81;5052133;28;20449;-39
2021/11/28 04:34:13;;;;;;;48.35;22.80;;;;;;;1.95;92.68;99602.50;5052482;28;20037;-39
2021/11/28 04:36:39;;;;;;;44.33;21.75;;;;;;;1.92;92.97;99602.78;5050959;28;20112;-39
2021/11/28 04:39:04;;;;;;;47.42;23.80;;;;;;;1.90;93.56;99605.59;5052102;28;20056;-39
2021/11/28 04:41:30;;;;;;;50.55;22.90;;;;;;;1.89;93.44;99601.25;5050446;28;20044;-38
2021/11/28 04:43:55;;;;;;;47.78;22.77;;;;;;;1.91;93.22;99599.28;5051972;28;20106;-39
2021/11/28 04:46:20;;;;;;;47.85;22.63;;;;;;;1.92;93.62;99597.47;5055843;28;20032;-38
2021/11/28 04:48:46;;;;;;;48.55;23.52;;;;;;;1.88;93.85;99599.63;5036602;28;20235;-39
2021/11/28 04:51:11;;;;;;;48.83;23.88;;;;;;;1.88;93.31;99604.91;5036243;28;20029;-39
2021/11/28 04:53:37;;;;;;;49.88;23.17;;;;;;;1.87;93.56;99595.31;5036337;28;20029;-39
2021/11/28 04:56:02;;;;;;;52.75;23.58;;;;;;;1.87;93.39;99592.66;5036584;28;20473;-39
2021/11/28 04:58:27;;;;;;;50.85;23.98;;;;;;;1.91;93.82;99599.28;5039038;28;20034;-39
2021/11/28 05:00:53;;;;;;;50.45;23.45;;;;;;;2.02;93.53;99613.28;5038139;28;20156;-39
2021/11/28 05:03:18;;;;;;;50.28;22.50;;;;;;;1.99;92.91;99609.13;5038539;28;20351;-39
2021/11/28 05:05:44;;;;;;;44.78;22.67;;;;;;;1.94;93.31;99614.91;5035939;28;20029;-39
2021/11/28 05:08:09;;;;;;;46.00;22.33;;;;;;;1.96;93.31;99614.75;5036116;28;20025;-39
2021/11/28 05:10:34;;;;;;;46.60;21.83;;;;;;;1.93;93.19;99617.72;5036829;28;20025;-39
2021/11/28 05:13:00;;;;;;;48.17;22.02;;;;;;;1.91;93.68;99617.88;5035912;28;20133;-39
2021/11/28 05:15:25;;;;;;;49.30;22.38;;;;;;;1.90;93.88;99621.53;5036854;28;20040;-39
2021/11/28 05:17:50;;;;;;;47.38;22.88;;;;;;;1.92;93.66;99626.66;5035926;28;20033;-39
2021/11/28 05:20:16;;;;;;;50.08;22.83;;;;;;;1.94;93.70;99630.81;5035663;28;20424;-39
2021/11/28 05:22:41;;;;;;;52.63;23.77;;;;;;;1.95;93.68;99642.28;5035416;28;20447;-39
2021/11/28 05:25:07;;;;;;;44.17;22.02;;;;;;;1.95;93.85;99631.69;5036768;28;20027;-39
2021/11/28 05:27:33;;;;;;;50.25;23.52;;;;;;;2.02;93.97;99631.88;5045364;28;20029;-39
2021/11/28 05:29:58;;;;;;;50.28;22.98;;;;;;;1.98;94.53;99637.50;5035610;28;20465;-39
2021/11/28 05:32:24;;;;;;;57.22;24.15;;;;;;;1.96;93.85;99642.13;5035484;28;20129;-38
2021/11/28 05:34:49;;;;;;;55.13;24.33;;;;;;;1.96;94.59;99628.84;5035435;28;20025;-39
2021/11/28 05:37:15;;;;;;;53.08;23.48;;;;;;;1.94;94.54;99627.34;5035318;28;20034;-39
2021/11/28 05:39:42;;;;;;;52.15;22.77;;;;;;;1.92;94.42;99626.66;5035035;28;20472;-39
2021/11/28 05:42:07;;;;;;;49.80;23.95;;;;;;;1.91;94.18;99635.63;5047548;28;20024;-39
2021/11/28 05:44:33;;;;;;;49.95;24.58;;;;;;;1.90;94.02;99629.47;5055309;28;20074;-38
2021/11/28 05:46:58;;;;;;;58.10;24.30;;;;;;;1.90;94.43;99633.97;5035571;28;20041;-37
2021/11/28 05:49:23;;;;;;;55.35;23.98;;;;;;;1.92;94.52;99639.91;5036251;28;20112;-39
2021/11/28 05:51:49;;;;;;;51.58;23.63;;;;;;;1.89;94.68;99635.75;5034522;28;20025;-39
2021/11/28 05:54:14;;;;;;;50.08;23.35;;;;;;;1.88;94.67;99643.88;5035127;28;20026;-39
2021/11/28 05:56:39;;;;;;;50.97;23.10;;;;;;;1.86;94.50;99646.69;5052124;28;20064;-39
2021/11/28 05:59:05;;;;;;;52.17;24.42;;;;;;;1.86;95.03;99646.69;5028223;28;20041;-39
2021/11/28 06:01:30;;;;;;;58.83;26.13;;;;;;;1.87;94.39;99647.50;5026748;28;20050;-39
2021/11/28 06:03:56;;;;;;;53.72;25.42;;;;;;;1.86;95.03;99649.34;5046235;28;20473;-39
2021/11/28 06:06:21;;;;;;;57.58;24.30;;;;;;;1.86;94.93;99649.34;5054893;28;20037;-39
2021/11/28 06:08:46;;;;;;;54.58;23.42;;;;;;;1.85;94.69;99657.47;5039451;28;20029;-38
2021/11/28 06:11:12;;;;;;;54.45;23.50;;;;;;;1.80;94.97;99657.94;5027514;28;20029;-38
2021/11/28 06:13:37;;;;;;;55.05;24.15;;;;;;;1.75;95.01;99652.25;5034738;28;20056;-39
2021/11/28 06:16:05;;;;;;;54.10;21.92;;;;;;;1.75;95.15;99660.22;5034387;28;20033;-39
2021/11/28 06:18:31;;;;;;;52.13;22.90;;;;;;;1.72;94.81;99664.00;5034793;28;20034;-39
2021/11/28 06:20:56;;;;;;;50.30;22.80;;;;;;;1.67;94.45;99668.09;5035600;28;20079;-38
2021/11/28 06:23:22;;;;;;;57.80;23.33;;;;;;;1.66;94.46;99667.28;5032488;28;20468;-39
2021/11/28 06:25:47;;;;;;;60.95;25.15;;;;;;;1.66;94.69;99679.69;5032621;28;20040;-39
2021/11/28 06:28:12;;;;;;;59.17;24.63;;;;;;;1.64;95.06;99676.38;5039915;28;20377;-40
2021/11/28 06:30:38;;;;;;;62.08;24.05;;;;;;;1.63;94.80;99677.34;5045322;28;20036;-39
2021/11/28 06:33:04;;;;;;;61.38;24.35;;;;;;;1.65;95.15;99684.16;5043317;28;20061;-39
2021/11/28 06:35:29;;;;;;;62.08;24.27;;;;;;;1.68;95.39;99683.84;5032413;28;20033;-38
2021/11/28 06:37:55;;;;;;;65.97;25.35;;;;;;;1.72;95.82;99689.69;5045438;28;20056;-40
2021/11/28 06:40:20;;;;;;;62.95;24.63;;;;;;;1.73;95.79;99686.03;5046413;28;20029;-40
2021/11/28 06:42:46;;;;;;;64.32;26.77;;;;;;;1.77;95.79;99683.94;5041720;28;20037;-38
2021/11/28 06:45:12;;;;;;;64.70;26.05;;;;;;;1.81;95.95;99691.41;5031321;28;20029;-38
2021/11/28 06:47:38;;;;;;;67.15;26.00;;;;;;;1.84;96.37;99691.09;5031635;28;20026;-39
2021/11/28 06:50:03;;;;;;;70.65;26.45;;;;;;;1.92;95.85;99699.16;5029252;28;20443;-39
2021/11/28 06:52:29;;;;;;;68.80;26.00;;;;;;;1.95;96.40;99690.88;5030342;28;20806;-39
2021/11/28 06:54:54;;;;;;;62.78;25.40;;;;;;;1.98;96.32;99690.56;5031359;28;20025;-39
2021/11/28 06:57:19;;;;;;;64.25;26.05;;;;;;;2.02;96.43;99703.50;5031558;28;20041;-39
2021/11/28 06:59:45;;;;;;;55.38;24.13;;;;;;;2.05;96.37;99700.53;5030174;28;20068;-39
2021/11/28 07:02:10;;;;;;;63.40;25.45;;;;;;;2.09;95.99;99710.72;5028689;28;20045;-39
2021/11/28 07:04:35;;;;;;;56.47;25.30;;;;;;;2.11;96.06;99707.91;5042817;28;20029;-39
2021/11/28 07:07:01;;;;;;;65.25;26.27;;;;;;;2.11;95.87;99703.44;5033638;28;20293;-39
2021/11/28 07:09:27;;;;;;;58.13;24.40;;;;;;;2.15;95.92;99715.38;5049077;28;20036;-39
2021/11/28 07:11:53;;;;;;;63.00;24.92;;;;;;;2.17;96.00;99720.56;5022801;28;20405;-38
2021/11/28 07:14:18;;;;;;;59.03;25.08;;;;;;;2.21;95.71;99727.19;5023003;28;20041;-38
2021/11/28 07:16:44;;;;;;;58.75;24.80;;;;;;;2.30;96.04;99722.78;5020038;28;20413;-38
2021/11/28 07:19:09;;;;;;;60.40;25.60;;;;;;;2.33;95.77;99728.63;5040258;28;20115;-38
2021/11/28 07:21:34;;;;;;;60.75;25.58;;;;;;;2.44;96.19;99739.97;5045402;28;20032;-39
2021/11/28 07:24:01;;;;;;;66.78;27.35;;;;;;;2.54;96.38;99746.00;5029934;28;20083;-38
2021/11/28 07:26:26;;;;;;;69.68;27.40;;;;;;;2.57;95.97;99753.66;5029803;28;20038;-39
2021/11/28 07:28:51;;;;;;;61.58;25.70;;;;;;;2.66;96.17;99752.72;5028797;28;20094;-42
2021/11/28 07:31:18;;;;;;;60.25;25.67;;;;;;;2.64;95.62;99754.72;5041672;28;20084;-42
2021/11/28 07:33:44;;;;;;;64.28;25.73;;;;;;;2.67;95.98;99764.19;5034077;28;20100;-41
2021/11/28 07:36:09;;;;;;;55.60;25.45;;;;;;;2.77;95.58;99765.75;5022883;28;20501;-41
2021/11/28 07:38:35;;;;;;;51.97;18.50;;;;;;;3.02;95.22;99769.31;5017756;28;20032;-41
2021/11/28 07:41:01;;;;;;;34.97;14.45;;;;;;;3.18;94.12;99778.38;5044351;28;20075;-41
2021/11/28 07:43:26;;;;;;;27.65;11.95;;;;;;;3.26;93.65;99779.22;5029395;28;20036;-41
2021/11/28 07:45:52;;;;;;;23.90;9.77;;;;;;;3.30;93.31;99772.59;5029734;28;20447;-41
2021/11/28 07:48:17;;;;;;;16.80;8.23;;;;;;;3.35;93.42;99781.94;5029872;28;20041;-40
2021/11/28 07:50:43;;;;;;;18.90;6.90;;;;;;;3.38;92.76;99789.59;5039290;28;20554;-40
2021/11/28 07:53:08;;;;;;;13.02;5.72;;;;;;;3.37;92.87;99793.22;5045455;28;20104;-40
2021/11/28 07:55:34;;;;;;;9.68;5.38;;;;;;;3.32;92.96;99808.81;5029558;28;20079;-40
2021/11/28 07:58:00;;;;;;;13.18;6.07;;;;;;;3.26;93.32;99818.28;5030400;28;20025;-41
2021/11/28 08:00:26;;;;;;;15.13;6.55;;;;;;;3.17;93.45;99814.75;5017022;28;20033;-41
2021/11/28 08:02:51;;;;;;;12.90;5.13;;;;;;;3.28;93.34;99827.75;5044255;28;20086;-40
2021/11/28 08:05:16;;;;;;;6.95;2.63;;;;;;;3.19;92.70;99818.09;5048945;28;20376;-41
2021/11/28 08:07:42;;;;;;;9.43;2.53;;;;;;;3.22;92.74;99817.78;5025876;28;20489;-41
2021/11/28 08:10:08;;;;;;;7.32;2.17;;;;;;;3.32;91.89;99817.66;5039518;28;20465;-41
2021/11/28 08:12:33;;;;;;;6.70;1.30;;;;;;;3.32;92.01;99816.81;5033312;28;20492;-45
2021/11/28 08:14:59;;;;;;;5.05;1.40;;;;;;;3.33;91.60;99821.16;5034453;28;20403;-43
2021/11/28 08:17:24;;;;;;;4.22;1.58;;;;;;;3.33;92.38;99819.31;5039337;28;20059;-41
2021/11/28 08:19:50;;;;;;;6.20;1.98;;;;;;;3.41;91.98;99829.16;5040575;28;20046;-42
2021/11/28 08:22:15;;;;;;;4.25;1.50;;;;;;;3.34;92.11;99838.75;5036756;28;20112;-42
2021/11/28 08:24:40;;;;;;;7.97;2.15;;;;;;;3.36;92.23;99842.09;5035773;28;20029;-42
2021/11/28 08:27:06;;;;;;;3.60;1.27;;;;;;;3.37;92.77;99838.44;5047790;28;20510;-40
2021/11/28 08:29:32;;;;;;;5.82;1.00;;;;;;;3.34;92.42;99841.41;5045537;28;20029;-42
2021/11/28 08:31:58;;;;;;;6.50;0.95;;;;;;;3.27;92.43;99847.38;5050718;28;20044;-41
2021/11/28 08:34:24;;;;;;;10.27;1.00;;;;;;;3.42;93.05;99852.09;5061786;28;20089;-41
2021/11/28 08:36:50;;;;;;;11.18;1.60;;;;;;;3.41;93.25;99853.09;5041562;28;20038;-42
2021/11/28 08:39:15;;;;;;;4.15;0.82;;;;;;;3.40;92.86;99860.25;5047830;28;20520;-40
2021/11/28 08:41:41;;;;;;;2.97;1.15;;;;;;;3.39;92.62;99861.22;5054752;28;20091;-42
2021/11/28 08:44:06;;;;;;;6.38;1.30;;;;;;;3.40;92.38;99864.75;5026724;28;20457;-43
2021/11/28 08:46:32;;;;;;;6.38;1.02;;;;;;;3.41;92.83;99864.56;5055956;28;20021;-42
2021/11/28 08:48:58;;;;;;;2.75;1.08;;;;;;;3.42;93.02;99868.91;5056008;28;20032;-42
2021/11/28 08:51:25;;;;;;;5.18;1.25;;;;;;;3.41;92.67;99863.72;5046360;28;20496;-43
2021/11/28 08:53:51;;;;;;;4.07;1.05;;;;;;;3.40;92.67;99873.53;5031692;28;20022;-43
2021/11/28 08:56:16;;;;;;;3.67;0.90;;;;;;;3.44;92.07;99885.50;5035171;28;20099;-43
2021/11/28 08:58:42;;;;;;;4.80;0.80;;;;;;;3.42;91.95;99876.88;5032744;28;20337;-45
2021/11/28 09:01:07;;;;;;;5.10;0.77;;;;;;;3.29;92.03;99879.97;5052064;28;20059;-43
2021/11/28 09:03:32;;;;;;;7.38;0.80;;;;;;;3.27;92.56;99881.13;5053291;28;20025;-43
2021/11/28 09:05:58;;;;;;;9.75;1.70;;;;;;;3.34;92.73;99891.94;5052679;28;20029;-44
2021/11/28 09:08:23;;;;;;;5.68;1.23;;;;;;;3.32;92.39;99896.59;5050702;28;20102;-42
2021/11/28 09:10:49;;;;;;;5.63;0.90;;;;;;;3.36;92.79;99897.94;5037341;28;20040;-44
2021/11/28 09:13:15;;;;;;;8.32;0.60;;;;;;;3.32;92.08;99902.75;5033658;28;20036;-42
2021/11/28 09:15:41;;;;;;;3.63;0.47;;;;;;;3.28;91.31;99902.22;5053474;28;20025;-43
2021/11/28 09:18:33;;;;;;;1.25;0.40;;;;;;;3.24;91.61;99906.22;5054143;28;20082;-43
2021/11/28 09:20:58;;;;;;;6.38;0.60;;;;;;;3.21;92.15;99906.53;5052455;28;20369;-43
2021/11/28 09:26:07;;;;;;;3.83;0.70;;;;;;;3.20;92.44;99899.53;5050956;28;20047;-45
2021/11/28 09:28:32;;;;;;;3.47;0.73;;;;;;;3.21;92.82;99917.16;5050554;28;20786;-45
2021/11/28 09:30:57;;;;;;;6.18;0.77;;;;;;;3.25;92.91;99913.19;5035670;28;20495;-45
2021/11/28 09:33:23;;;;;;;6.00;1.05;;;;;;;3.25;91.82;99902.53;5033144;28;20072;-43
2021/11/28 09:35:48;;;;;;;10.95;1.00;;;;;;;3.26;92.90;99909.53;5032260;28;20026;-43
2021/11/28 09:38:13;;;;;;;8.80;0.95;;;;;;;3.25;92.72;99913.19;5031706;28;20048;-43
2021/11/28 09:40:43;;;;;;;9.27;0.88;;;;;;;3.26;92.57;99898.06;5044458;28;20040;-43
2021/11/28 09:43:10;;;;;;;4.07;0.80;;;;;;;3.29;92.56;99895.94;5030369;28;20079;-41
2021/11/28 09:45:35;;;;;;;6.55;1.25;;;;;;;3.29;92.59;99898.59;5031850;28;20116;-41
2021/11/28 09:48:04;;;;;;;6.97;1.00;;;;;;;3.33;92.50;99908.91;5032879;28;20045;-41
2021/11/28 09:50:29;;;;;;;6.30;0.93;;;;;;;3.39;92.47;99897.63;5042128;28;20384;-41
2021/11/28 09:52:55;;;;;;;4.40;0.82;;;;;;;3.40;92.80;99889.50;5051484;28;20025;-42
2021/11/28 09:55:20;;;;;;;4.90;1.10;;;;;;;3.41;91.51;99880.53;5047288;28;20024;-41
2021/11/28 09:57:46;;;;;;;1.90;0.82;;;;;;;3.38;90.23;99880.00;5026650;28;20420;-41
2021/11/28 10:00:13;;;;;;;4.53;0.80;;;;;;;3.40;90.94;99878.88;5026400;28;20024;-40
2021/11/28 10:02:39;;;;;;;3.70;0.90;;;;;;;3.39;91.24;99877.19;5030775;28;20046;-40
2021/11/28 10:05:08;;;;;;;2.78;0.93;;;;;;;3.38;90.54;99880.84;5030914;28;20044;-39
2021/11/28 10:07:33;;;;;;;2.15;0.80;;;;;;;3.41;92.09;99885.00;5033389;28;20431;-40
2021/11/28 10:09:59;;;;;;;2.75;0.70;;;;;;;3.48;92.09;99878.91;5024812;28;20038;-40
2021/11/28 10:12:31;;;;;;;3.40;0.90;;;;;;;3.50;91.45;99879.56;5050292;28;20131;-40
2021/11/28 10:15:02;;;;;;;1.58;0.65;;;;;;;3.53;91.54;99881.09;5046961;28;20112;-40
2021/11/28 10:17:30;;;;;;;3.05;0.90;;;;;;;3.57;91.73;99884.25;5030914;28;20028;-39
2021/11/28 10:19:56;;;;;;;4.68;0.65;;;;;;;3.55;91.67;99884.41;5049564;28;20120;-39
2021/11/28 10:22:22;;;;;;;3.58;0.80;;;;;;;3.59;92.87;99882.28;5033550;28;20116;-39
2021/11/28 10:25:07;;;;;;;3.40;0.50;;;;;;;3.56;92.31;99888.75;5030883;28;20449;-41
2021/11/28 10:27:41;;;;;;;3.17;0.88;;;;;;;3.56;92.38;99899.38;5031714;28;20447;-40
2021/11/28 10:30:10;;;;;;;3.10;0.70;;;;;;;3.61;92.54;99899.75;5050914;28;20175;-39
2021/11/28 10:32:40;;;;;;;1.70;0.70;;;;;;;3.64;91.41;99896.75;5017241;28;20034;-40
2021/11/28 10:35:09;;;;;;;1.27;0.60;;;;;;;3.66;92.31;99916.06;5030962;28;20029;-40
2021/11/28 10:37:39;;;;;;;1.45;0.60;;;;;;;3.70;92.63;99916.56;5030802;28;20033;-40
2021/11/28 10:40:05;;;;;;;2.70;0.70;;;;;;;3.65;92.07;99917.03;5030671;28;20037;-39
2021/11/28 10:42:33;;;;;;;0.95;0.55;;;;;;;3.64;92.99;99912.72;5025074;28;20030;-39
2021/11/28 10:45:06;;;;;;;2.65;0.60;;;;;;;3.72;91.97;99918.06;5041293;28;20090;-39
2021/11/28 10:47:40;;;;;;;0.88;0.68;;;;;;;3.62;91.71;99912.03;5031988;28;20120;-39
2021/11/28 10:50:09;;;;;;;0.95;0.57;;;;;;;3.64;91.19;99920.69;5030323;28;20065;-41
2021/11/28 10:52:35;;;;;;;2.60;0.40;;;;;;;3.62;91.29;99933.31;5033257;28;20033;-43
2021/11/28 10:55:14;;;;;;;0.55;0.45;;;;;;;3.56;90.76;99918.00;5030323;28;20108;-45
2021/11/28 10:57:39;;;;;;;3.40;0.50;;;;;;;3.60;90.53;99915.84;5024531;28;20034;-45
2021/11/28 11:00:10;;;;;;;4.57;0.60;;;;;;;3.56;89.53;99903.88;5034788;28;20036;-43
2021/11/28 11:02:38;;;;;;;3.33;0.95;;;;;;;3.56;88.66;99901.22;5031104;28;20500;-43
2021/11/28 11:05:06;;;;;;;4.10;1.05;;;;;;;3.56;90.06;99909.19;5030048;28;20552;-43
2021/11/28 11:07:48;;;;;;;2.90;0.60;;;;;;;3.56;90.21;99923.31;5022278;28;20108;-42
2021/11/28 11:10:21;;;;;;;0.77;0.50;;;;;;;3.56;90.53;99915.34;5034031;28;20089;-41
2021/11/28 11:12:46;;;;;;;4.35;1.00;;;;;;;3.55;90.62;99908.34;5027832;28;20147;-41
2021/11/28 11:15:16;;;;;;;1.30;0.80;;;;;;;3.58;91.03;99897.41;5010389;28;20113;-42
2021/11/28 11:17:56;;;;;;;4.00;1.00;;;;;;;3.68;91.28;99898.09;5023621;28;20419;-42
2021/11/28 11:20:29;;;;;;;3.33;0.90;;;;;;;3.80;91.91;99905.78;5024354;28;20026;-42
2021/11/28 11:22:55;;;;;;;7.70;1.33;;;;;;;3.91;91.64;99897.50;5027754;28;20535;-40
2021/11/28 11:25:29;;;;;;;4.53;0.80;;;;;;;3.92;91.34;99893.84;5043559;28;20029;-40
2021/11/28 11:28:06;;;;;;;2.22;0.73;;;;;;;4.03;91.12;99898.03;5029730;28;20030;-41
2021/11/28 11:30:31;;;;;;;4.22;0.82;;;;;;;4.10;90.24;99902.53;5029876;28;20044;-38
2021/11/28 11:33:01;;;;;;;7.07;1.08;;;;;;;4.09;90.01;99897.38;5031026;28;20033;-40
2021/11/28 11:35:32;;;;;;;1.63;0.93;;;;;;;4.23;90.52;99890.59;5030897;28;20021;-39